TCMO2: Little River Nr Tecumseh, OK

Data processed at Tue May 21 2019 23:50


All information presented herein is the property of the government of the United States of America and may be revised or deleted at any time without prior notice.
Dissemination of this information without the expressed written consent of the Public Affairs Office, Tulsa District U.S. Army Corps of Engineers is strictly prohibited.
These data are gathered electronically and, as presented, have not undergone any form of quality control. These data are not guaranteed to be valid or correct.
Go to home page.
Go to station list.
Go to home page.

Upstream stations:

Downstream station:
Previous Day
Next Day
Current Day
    
SHEF ID:       TCMO2     Little River near Tecumseh, OK
STATION TYPE:  
Regulating: Stage =    11.00, Flow =     2125

                STAGE  RIV-FLOW  BAT-LOAD
                   ft       cfs      volt
              Ccp-Rev   Ccp-Rev   Ccp-Rev
(US/Central)
05/21 00:00      5.28       106     12.57
05/21 01:00      5.27       105     12.57
05/21 02:00      5.27       105     12.57
05/21 03:00      5.27       105     12.57
05/21 04:00      5.26       104     12.49
05/21 05:00      5.32       112     12.49
05/21 06:00      5.46       131     12.49
05/21 07:00      5.54       144     12.49
05/21 08:00      6.16       264     12.49
05/21 09:00      7.16       529     12.49
05/21 10:00      7.94       781     12.57
05/21 11:00      8.67      1049     12.57
05/21 12:00      9.15      1241     12.65
05/21 13:00      9.39      1343     12.89
05/21 14:00      9.51      1396     12.81
05/21 15:00      9.43      1361     12.97
05/21 16:00      9.30      1303     12.97
05/21 17:00      9.05      1200     12.97
05/21 18:00      8.74      1076     12.97
05/21 19:00      8.39       942     12.97
05/21 20:00      8.04       816     12.89
05/21 21:00      7.71       703     12.73
05/21 22:00      7.43       612     12.65
05/21 23:00      7.18       535     12.65